sensor_id;sensor_type;location;lat;lon;timestamp;P1;durP1;ratioP1;P2;durP2;ratioP2
49860;SDS011;35761;48.826;9.238;2023-02-28T00:01:32;5.28;;;2.20;;
49860;SDS011;35761;48.826;9.238;2023-02-28T00:04:01;4.85;;;2.08;;
49860;SDS011;35761;48.826;9.238;2023-02-28T00:06:30;4.55;;;1.85;;
49860;SDS011;35761;48.826;9.238;2023-02-28T00:08:58;4.50;;;2.17;;
49860;SDS011;35761;48.826;9.238;2023-02-28T00:11:27;6.45;;;2.22;;
49860;SDS011;35761;48.826;9.238;2023-02-28T00:13:56;6.80;;;2.20;;
49860;SDS011;35761;48.826;9.238;2023-02-28T00:16:26;10.15;;;2.60;;
49860;SDS011;35761;48.826;9.238;2023-02-28T00:18:55;5.03;;;2.00;;
49860;SDS011;35761;48.826;9.238;2023-02-28T00:21:24;4.07;;;1.88;;
49860;SDS011;35761;48.826;9.238;2023-02-28T00:23:53;4.50;;;2.13;;
49860;SDS011;35761;48.826;9.238;2023-02-28T00:26:22;6.03;;;2.13;;
49860;SDS011;35761;48.826;9.238;2023-02-28T00:28:51;5.65;;;2.33;;
49860;SDS011;35761;48.826;9.238;2023-02-28T00:31:21;6.05;;;2.13;;
49860;SDS011;35761;48.826;9.238;2023-02-28T00:33:51;8.18;;;3.20;;
49860;SDS011;35761;48.826;9.238;2023-02-28T00:36:20;5.00;;;2.80;;
49860;SDS011;35761;48.826;9.238;2023-02-28T00:38:49;9.63;;;2.47;;
49860;SDS011;35761;48.826;9.238;2023-02-28T00:41:18;5.35;;;2.50;;
49860;SDS011;35761;48.826;9.238;2023-02-28T00:43:47;9.38;;;2.70;;
49860;SDS011;35761;48.826;9.238;2023-02-28T00:46:16;8.63;;;2.50;;
49860;SDS011;35761;48.826;9.238;2023-02-28T00:48:45;11.98;;;2.50;;
49860;SDS011;35761;48.826;9.238;2023-02-28T00:51:15;5.07;;;2.20;;
49860;SDS011;35761;48.826;9.238;2023-02-28T00:53:44;10.00;;;2.47;;
49860;SDS011;35761;48.826;9.238;2023-02-28T00:56:13;5.60;;;1.95;;
49860;SDS011;35761;48.826;9.238;2023-02-28T00:58:41;3.95;;;2.10;;
49860;SDS011;35761;48.826;9.238;2023-02-28T01:01:10;6.85;;;2.35;;
49860;SDS011;35761;48.826;9.238;2023-02-28T01:03:39;5.72;;;2.10;;
49860;SDS011;35761;48.826;9.238;2023-02-28T01:06:08;5.75;;;2.47;;
49860;SDS011;35761;48.826;9.238;2023-02-28T01:08:38;4.10;;;2.15;;
49860;SDS011;35761;48.826;9.238;2023-02-28T01:11:08;8.45;;;2.42;;
49860;SDS011;35761;48.826;9.238;2023-02-28T01:13:39;5.32;;;2.17;;
49860;SDS011;35761;48.826;9.238;2023-02-28T01:16:10;4.65;;;2.50;;
49860;SDS011;35761;48.826;9.238;2023-02-28T01:18:39;6.35;;;2.20;;
49860;SDS011;35761;48.826;9.238;2023-02-28T01:21:09;4.65;;;2.25;;
49860;SDS011;35761;48.826;9.238;2023-02-28T01:23:40;3.97;;;2.17;;
49860;SDS011;35761;48.826;9.238;2023-02-28T01:26:10;4.88;;;2.25;;
49860;SDS011;35761;48.826;9.238;2023-02-28T01:28:40;5.10;;;2.22;;
49860;SDS011;35761;48.826;9.238;2023-02-28T01:31:09;4.68;;;2.55;;
49860;SDS011;35761;48.826;9.238;2023-02-28T01:33:38;4.72;;;2.65;;
49860;SDS011;35761;48.826;9.238;2023-02-28T01:36:09;6.40;;;2.83;;
49860;SDS011;35761;48.826;9.238;2023-02-28T01:38:39;5.65;;;2.50;;
49860;SDS011;35761;48.826;9.238;2023-02-28T01:41:10;7.07;;;3.08;;
49860;SDS011;35761;48.826;9.238;2023-02-28T01:43:57;5.95;;;2.45;;
49860;SDS011;35761;48.826;9.238;2023-02-28T01:46:30;5.97;;;2.75;;
49860;SDS011;35761;48.826;9.238;2023-02-28T01:49:01;6.55;;;2.65;;
49860;SDS011;35761;48.826;9.238;2023-02-28T01:51:34;7.07;;;2.85;;
49860;SDS011;35761;48.826;9.238;2023-02-28T01:54:08;6.30;;;2.63;;
49860;SDS011;35761;48.826;9.238;2023-02-28T01:59:09;5.53;;;2.75;;
49860;SDS011;35761;48.826;9.238;2023-02-28T02:01:40;4.65;;;2.35;;
49860;SDS011;35761;48.826;9.238;2023-02-28T02:04:09;6.03;;;2.60;;
49860;SDS011;35761;48.826;9.238;2023-02-28T02:06:39;6.15;;;2.83;;
49860;SDS011;35761;48.826;9.238;2023-02-28T02:09:11;7.10;;;2.85;;
49860;SDS011;35761;48.826;9.238;2023-02-28T02:11:40;5.72;;;2.70;;
49860;SDS011;35761;48.826;9.238;2023-02-28T02:14:24;6.35;;;3.10;;
49860;SDS011;35761;48.826;9.238;2023-02-28T02:17:10;12.07;;;3.03;;
49860;SDS011;35761;48.826;9.238;2023-02-28T02:19:51;9.55;;;2.70;;
49860;SDS011;35761;48.826;9.238;2023-02-28T02:25:47;6.00;;;3.13;;
49860;SDS011;35761;48.826;9.238;2023-02-28T02:28:29;6.35;;;2.60;;
49860;SDS011;35761;48.826;9.238;2023-02-28T02:31:24;5.67;;;2.70;;
49860;SDS011;35761;48.826;9.238;2023-02-28T02:37:13;7.50;;;3.03;;
49860;SDS011;35761;48.826;9.238;2023-02-28T02:39:47;6.78;;;2.65;;
49860;SDS011;35761;48.826;9.238;2023-02-28T02:42:21;3.85;;;2.05;;
49860;SDS011;35761;48.826;9.238;2023-02-28T02:44:55;7.37;;;2.97;;
49860;SDS011;35761;48.826;9.238;2023-02-28T02:47:29;7.22;;;3.00;;
49860;SDS011;35761;48.826;9.238;2023-02-28T02:50:01;6.45;;;3.42;;
49860;SDS011;35761;48.826;9.238;2023-02-28T02:52:34;6.10;;;3.20;;
49860;SDS011;35761;48.826;9.238;2023-02-28T02:55:05;7.97;;;3.40;;
49860;SDS011;35761;48.826;9.238;2023-02-28T02:57:38;6.63;;;2.95;;
49860;SDS011;35761;48.826;9.238;2023-02-28T03:00:13;7.53;;;2.92;;
49860;SDS011;35761;48.826;9.238;2023-02-28T03:02:45;4.82;;;2.60;;
49860;SDS011;35761;48.826;9.238;2023-02-28T03:05:19;6.47;;;3.22;;
49860;SDS011;35761;48.826;9.238;2023-02-28T03:07:49;7.85;;;3.30;;
49860;SDS011;35761;48.826;9.238;2023-02-28T03:10:28;6.50;;;3.28;;
49860;SDS011;35761;48.826;9.238;2023-02-28T03:13:02;3.92;;;2.67;;
49860;SDS011;35761;48.826;9.238;2023-02-28T03:15:43;6.40;;;3.17;;
49860;SDS011;35761;48.826;9.238;2023-02-28T03:18:32;7.28;;;3.30;;
49860;SDS011;35761;48.826;9.238;2023-02-28T03:21:13;7.93;;;3.40;;
49860;SDS011;35761;48.826;9.238;2023-02-28T03:23:48;7.13;;;3.40;;
49860;SDS011;35761;48.826;9.238;2023-02-28T03:26:22;8.27;;;2.97;;
49860;SDS011;35761;48.826;9.238;2023-02-28T03:28:53;6.35;;;3.35;;
49860;SDS011;35761;48.826;9.238;2023-02-28T03:31:27;13.73;;;3.47;;
49860;SDS011;35761;48.826;9.238;2023-02-28T03:33:59;8.50;;;3.90;;
49860;SDS011;35761;48.826;9.238;2023-02-28T03:36:33;9.27;;;3.70;;
49860;SDS011;35761;48.826;9.238;2023-02-28T03:39:11;7.20;;;3.55;;
49860;SDS011;35761;48.826;9.238;2023-02-28T03:41:43;9.05;;;3.40;;
49860;SDS011;35761;48.826;9.238;2023-02-28T03:44:17;8.02;;;3.28;;
49860;SDS011;35761;48.826;9.238;2023-02-28T03:46:49;9.57;;;3.50;;
49860;SDS011;35761;48.826;9.238;2023-02-28T03:49:22;7.38;;;3.47;;
49860;SDS011;35761;48.826;9.238;2023-02-28T03:51:53;5.82;;;3.05;;
49860;SDS011;35761;48.826;9.238;2023-02-28T03:54:24;7.68;;;3.92;;
49860;SDS011;35761;48.826;9.238;2023-02-28T03:56:56;8.30;;;3.80;;
49860;SDS011;35761;48.826;9.238;2023-02-28T03:59:28;7.57;;;3.70;;
49860;SDS011;35761;48.826;9.238;2023-02-28T04:02:00;5.95;;;3.03;;
49860;SDS011;35761;48.826;9.238;2023-02-28T04:04:29;8.55;;;4.00;;
49860;SDS011;35761;48.826;9.238;2023-02-28T04:07:05;7.13;;;3.58;;
49860;SDS011;35761;48.826;9.238;2023-02-28T04:09:34;5.93;;;3.17;;
49860;SDS011;35761;48.826;9.238;2023-02-28T04:12:03;7.53;;;3.58;;
49860;SDS011;35761;48.826;9.238;2023-02-28T04:14:32;8.07;;;3.40;;
49860;SDS011;35761;48.826;9.238;2023-02-28T04:17:01;7.18;;;3.83;;
49860;SDS011;35761;48.826;9.238;2023-02-28T04:19:30;6.93;;;3.65;;
49860;SDS011;35761;48.826;9.238;2023-02-28T04:21:58;7.93;;;4.18;;
49860;SDS011;35761;48.826;9.238;2023-02-28T04:24:29;7.88;;;4.00;;
49860;SDS011;35761;48.826;9.238;2023-02-28T04:26:57;8.15;;;3.40;;
49860;SDS011;35761;48.826;9.238;2023-02-28T04:29:27;6.93;;;3.67;;
49860;SDS011;35761;48.826;9.238;2023-02-28T04:31:58;7.65;;;3.83;;
49860;SDS011;35761;48.826;9.238;2023-02-28T04:34:29;9.25;;;3.90;;
49860;SDS011;35761;48.826;9.238;2023-02-28T04:36:58;8.73;;;4.28;;
49860;SDS011;35761;48.826;9.238;2023-02-28T04:39:40;7.57;;;3.72;;
49860;SDS011;35761;48.826;9.238;2023-02-28T04:42:09;10.65;;;3.83;;
49860;SDS011;35761;48.826;9.238;2023-02-28T04:44:38;8.23;;;4.20;;
49860;SDS011;35761;48.826;9.238;2023-02-28T04:47:07;9.18;;;4.30;;
49860;SDS011;35761;48.826;9.238;2023-02-28T04:49:36;10.25;;;3.75;;
49860;SDS011;35761;48.826;9.238;2023-02-28T04:52:04;9.32;;;4.43;;
49860;SDS011;35761;48.826;9.238;2023-02-28T04:54:33;8.43;;;4.10;;
49860;SDS011;35761;48.826;9.238;2023-02-28T04:57:03;8.00;;;4.30;;
49860;SDS011;35761;48.826;9.238;2023-02-28T04:59:32;8.38;;;4.28;;
49860;SDS011;35761;48.826;9.238;2023-02-28T05:02:01;9.02;;;3.78;;
49860;SDS011;35761;48.826;9.238;2023-02-28T05:04:33;12.13;;;4.07;;
49860;SDS011;35761;48.826;9.238;2023-02-28T05:07:02;10.32;;;4.07;;
49860;SDS011;35761;48.826;9.238;2023-02-28T05:09:31;9.32;;;4.60;;
49860;SDS011;35761;48.826;9.238;2023-02-28T05:12:00;8.30;;;4.50;;
49860;SDS011;35761;48.826;9.238;2023-02-28T05:14:30;8.85;;;4.15;;
49860;SDS011;35761;48.826;9.238;2023-02-28T05:16:59;9.73;;;4.30;;
49860;SDS011;35761;48.826;9.238;2023-02-28T05:19:28;6.90;;;4.20;;
49860;SDS011;35761;48.826;9.238;2023-02-28T05:21:57;10.85;;;4.35;;
49860;SDS011;35761;48.826;9.238;2023-02-28T05:24:25;6.45;;;3.92;;
49860;SDS011;35761;48.826;9.238;2023-02-28T05:26:54;9.48;;;4.35;;
49860;SDS011;35761;48.826;9.238;2023-02-28T05:29:23;8.68;;;4.00;;
49860;SDS011;35761;48.826;9.238;2023-02-28T05:31:53;7.32;;;4.20;;
49860;SDS011;35761;48.826;9.238;2023-02-28T05:34:22;9.02;;;4.63;;
49860;SDS011;35761;48.826;9.238;2023-02-28T05:36:50;12.02;;;4.45;;
49860;SDS011;35761;48.826;9.238;2023-02-28T05:39:19;9.32;;;4.68;;
49860;SDS011;35761;48.826;9.238;2023-02-28T05:41:48;9.93;;;4.22;;
49860;SDS011;35761;48.826;9.238;2023-02-28T05:44:17;10.43;;;4.32;;
49860;SDS011;35761;48.826;9.238;2023-02-28T05:46:46;8.27;;;4.65;;
49860;SDS011;35761;48.826;9.238;2023-02-28T05:49:16;10.70;;;5.72;;
49860;SDS011;35761;48.826;9.238;2023-02-28T05:51:45;9.30;;;4.85;;
49860;SDS011;35761;48.826;9.238;2023-02-28T05:54:14;6.95;;;4.45;;
49860;SDS011;35761;48.826;9.238;2023-02-28T05:56:42;11.70;;;5.25;;
49860;SDS011;35761;48.826;9.238;2023-02-28T05:59:12;9.05;;;4.75;;
49860;SDS011;35761;48.826;9.238;2023-02-28T06:01:41;10.52;;;5.78;;
49860;SDS011;35761;48.826;9.238;2023-02-28T06:04:15;10.52;;;4.78;;
49860;SDS011;35761;48.826;9.238;2023-02-28T06:07:02;8.18;;;4.18;;
49860;SDS011;35761;48.826;9.238;2023-02-28T06:09:31;16.50;;;5.18;;
49860;SDS011;35761;48.826;9.238;2023-02-28T06:11:59;11.20;;;4.40;;
49860;SDS011;35761;48.826;9.238;2023-02-28T06:14:30;11.20;;;5.90;;
49860;SDS011;35761;48.826;9.238;2023-02-28T06:16:59;9.90;;;5.38;;
49860;SDS011;35761;48.826;9.238;2023-02-28T06:19:30;10.77;;;5.82;;
49860;SDS011;35761;48.826;9.238;2023-02-28T06:21:58;9.52;;;5.22;;
49860;SDS011;35761;48.826;9.238;2023-02-28T06:24:27;8.35;;;4.82;;
49860;SDS011;35761;48.826;9.238;2023-02-28T06:26:57;11.13;;;5.07;;
49860;SDS011;35761;48.826;9.238;2023-02-28T06:29:31;11.68;;;5.75;;
49860;SDS011;35761;48.826;9.238;2023-02-28T06:32:00;10.35;;;5.45;;
49860;SDS011;35761;48.826;9.238;2023-02-28T06:34:30;14.13;;;6.75;;
49860;SDS011;35761;48.826;9.238;2023-02-28T06:37:00;14.00;;;6.53;;
49860;SDS011;35761;48.826;9.238;2023-02-28T06:39:29;12.32;;;6.32;;
49860;SDS011;35761;48.826;9.238;2023-02-28T06:41:58;11.70;;;4.90;;
49860;SDS011;35761;48.826;9.238;2023-02-28T06:44:26;9.20;;;4.90;;
49860;SDS011;35761;48.826;9.238;2023-02-28T06:47:02;9.52;;;5.30;;
49860;SDS011;35761;48.826;9.238;2023-02-28T06:49:33;12.65;;;5.30;;
49860;SDS011;35761;48.826;9.238;2023-02-28T06:52:03;14.38;;;5.90;;
49860;SDS011;35761;48.826;9.238;2023-02-28T06:54:31;13.48;;;5.18;;
49860;SDS011;35761;48.826;9.238;2023-02-28T06:57:00;8.95;;;5.18;;
49860;SDS011;35761;48.826;9.238;2023-02-28T06:59:29;12.00;;;5.00;;
49860;SDS011;35761;48.826;9.238;2023-02-28T07:01:58;10.43;;;5.45;;
49860;SDS011;35761;48.826;9.238;2023-02-28T07:04:28;10.15;;;5.15;;
49860;SDS011;35761;48.826;9.238;2023-02-28T07:06:58;16.33;;;5.65;;
49860;SDS011;35761;48.826;9.238;2023-02-28T07:09:27;13.30;;;6.00;;
49860;SDS011;35761;48.826;9.238;2023-02-28T07:11:56;8.48;;;5.68;;
49860;SDS011;35761;48.826;9.238;2023-02-28T07:14:26;10.45;;;5.68;;
49860;SDS011;35761;48.826;9.238;2023-02-28T07:16:55;10.32;;;5.20;;
49860;SDS011;35761;48.826;9.238;2023-02-28T07:19:24;8.70;;;4.70;;
49860;SDS011;35761;48.826;9.238;2023-02-28T07:21:53;9.40;;;5.22;;
49860;SDS011;35761;48.826;9.238;2023-02-28T07:24:23;11.68;;;6.18;;
49860;SDS011;35761;48.826;9.238;2023-02-28T07:26:54;12.73;;;5.55;;
49860;SDS011;35761;48.826;9.238;2023-02-28T07:29:23;12.63;;;6.07;;
49860;SDS011;35761;48.826;9.238;2023-02-28T07:31:52;10.07;;;5.95;;
49860;SDS011;35761;48.826;9.238;2023-02-28T07:34:21;13.65;;;6.60;;
49860;SDS011;35761;48.826;9.238;2023-02-28T07:36:52;12.05;;;6.00;;
49860;SDS011;35761;48.826;9.238;2023-02-28T07:39:22;16.80;;;5.80;;
49860;SDS011;35761;48.826;9.238;2023-02-28T07:41:51;9.57;;;5.55;;
49860;SDS011;35761;48.826;9.238;2023-02-28T07:44:25;10.13;;;5.47;;
49860;SDS011;35761;48.826;9.238;2023-02-28T07:46:53;10.75;;;5.55;;
49860;SDS011;35761;48.826;9.238;2023-02-28T07:49:22;11.10;;;4.85;;
49860;SDS011;35761;48.826;9.238;2023-02-28T07:51:51;10.95;;;6.10;;
49860;SDS011;35761;48.826;9.238;2023-02-28T07:54:20;9.32;;;5.30;;
49860;SDS011;35761;48.826;9.238;2023-02-28T07:56:50;11.70;;;5.80;;
49860;SDS011;35761;48.826;9.238;2023-02-28T07:59:18;9.50;;;5.57;;
49860;SDS011;35761;48.826;9.238;2023-02-28T08:01:47;11.38;;;6.05;;
49860;SDS011;35761;48.826;9.238;2023-02-28T08:04:17;13.52;;;7.05;;
49860;SDS011;35761;48.826;9.238;2023-02-28T08:06:46;12.52;;;6.53;;
49860;SDS011;35761;48.826;9.238;2023-02-28T08:09:14;13.60;;;5.85;;
49860;SDS011;35761;48.826;9.238;2023-02-28T08:11:45;11.50;;;7.15;;
49860;SDS011;35761;48.826;9.238;2023-02-28T08:14:13;11.00;;;7.03;;
49860;SDS011;35761;48.826;9.238;2023-02-28T08:16:42;12.73;;;6.22;;
49860;SDS011;35761;48.826;9.238;2023-02-28T08:19:24;10.85;;;6.07;;
49860;SDS011;35761;48.826;9.238;2023-02-28T08:21:53;9.77;;;5.78;;
49860;SDS011;35761;48.826;9.238;2023-02-28T08:24:22;12.73;;;6.63;;
49860;SDS011;35761;48.826;9.238;2023-02-28T08:26:52;9.77;;;6.05;;
49860;SDS011;35761;48.826;9.238;2023-02-28T08:29:21;13.13;;;6.50;;
49860;SDS011;35761;48.826;9.238;2023-02-28T08:31:50;11.43;;;6.20;;
49860;SDS011;35761;48.826;9.238;2023-02-28T08:34:18;10.23;;;6.38;;
49860;SDS011;35761;48.826;9.238;2023-02-28T08:36:47;11.20;;;6.43;;
49860;SDS011;35761;48.826;9.238;2023-02-28T08:39:16;16.67;;;6.70;;
49860;SDS011;35761;48.826;9.238;2023-02-28T08:41:46;12.38;;;7.32;;
49860;SDS011;35761;48.826;9.238;2023-02-28T08:44:33;15.73;;;8.15;;
49860;SDS011;35761;48.826;9.238;2023-02-28T08:47:02;11.00;;;6.40;;
49860;SDS011;35761;48.826;9.238;2023-02-28T08:49:31;11.02;;;6.55;;
49860;SDS011;35761;48.826;9.238;2023-02-28T08:51:59;13.95;;;6.82;;
49860;SDS011;35761;48.826;9.238;2023-02-28T08:54:28;10.90;;;5.93;;
49860;SDS011;35761;48.826;9.238;2023-02-28T08:56:58;10.90;;;6.20;;
49860;SDS011;35761;48.826;9.238;2023-02-28T08:59:27;12.23;;;7.18;;
49860;SDS011;35761;48.826;9.238;2023-02-28T09:01:57;14.48;;;7.97;;
49860;SDS011;35761;48.826;9.238;2023-02-28T09:04:26;13.95;;;6.97;;
49860;SDS011;35761;48.826;9.238;2023-02-28T09:06:57;18.27;;;7.28;;
49860;SDS011;35761;48.826;9.238;2023-02-28T09:09:25;12.77;;;6.30;;
49860;SDS011;35761;48.826;9.238;2023-02-28T09:11:55;11.00;;;6.25;;
49860;SDS011;35761;48.826;9.238;2023-02-28T09:14:23;12.60;;;7.38;;
49860;SDS011;35761;48.826;9.238;2023-02-28T09:16:52;16.65;;;7.55;;
49860;SDS011;35761;48.826;9.238;2023-02-28T09:19:22;12.15;;;6.97;;
49860;SDS011;35761;48.826;9.238;2023-02-28T09:21:51;18.90;;;9.70;;
49860;SDS011;35761;48.826;9.238;2023-02-28T09:24:20;16.08;;;7.80;;
49860;SDS011;35761;48.826;9.238;2023-02-28T09:26:49;19.20;;;7.45;;
49860;SDS011;35761;48.826;9.238;2023-02-28T09:29:30;13.68;;;6.80;;
49860;SDS011;35761;48.826;9.238;2023-02-28T09:31:59;14.10;;;6.97;;
49860;SDS011;35761;48.826;9.238;2023-02-28T09:34:30;11.45;;;6.43;;
49860;SDS011;35761;48.826;9.238;2023-02-28T09:36:59;11.90;;;6.90;;
49860;SDS011;35761;48.826;9.238;2023-02-28T09:39:28;14.07;;;7.30;;
49860;SDS011;35761;48.826;9.238;2023-02-28T09:41:58;11.50;;;6.70;;
49860;SDS011;35761;48.826;9.238;2023-02-28T09:44:28;11.70;;;6.97;;
49860;SDS011;35761;48.826;9.238;2023-02-28T09:46:59;12.40;;;7.50;;
49860;SDS011;35761;48.826;9.238;2023-02-28T09:49:36;11.73;;;6.43;;
49860;SDS011;35761;48.826;9.238;2023-02-28T09:52:09;11.85;;;6.80;;
49860;SDS011;35761;48.826;9.238;2023-02-28T09:54:40;13.45;;;6.25;;
49860;SDS011;35761;48.826;9.238;2023-02-28T09:57:13;13.73;;;7.15;;
49860;SDS011;35761;48.826;9.238;2023-02-28T09:59:50;15.48;;;7.47;;
49860;SDS011;35761;48.826;9.238;2023-02-28T10:02:50;14.48;;;6.78;;
49860;SDS011;35761;48.826;9.238;2023-02-28T10:05:37;12.82;;;7.13;;
49860;SDS011;35761;48.826;9.238;2023-02-28T10:08:12;13.77;;;7.68;;
49860;SDS011;35761;48.826;9.238;2023-02-28T10:10:43;12.77;;;7.22;;
49860;SDS011;35761;48.826;9.238;2023-02-28T10:13:17;16.38;;;8.15;;
49860;SDS011;35761;48.826;9.238;2023-02-28T10:15:51;13.95;;;8.00;;
49860;SDS011;35761;48.826;9.238;2023-02-28T10:18:24;13.07;;;7.18;;
49860;SDS011;35761;48.826;9.238;2023-02-28T10:20:55;13.63;;;7.57;;
49860;SDS011;35761;48.826;9.238;2023-02-28T10:23:25;15.25;;;7.15;;
49860;SDS011;35761;48.826;9.238;2023-02-28T10:25:59;15.68;;;8.20;;
49860;SDS011;35761;48.826;9.238;2023-02-28T10:28:29;14.50;;;7.35;;
49860;SDS011;35761;48.826;9.238;2023-02-28T10:30:58;14.77;;;6.93;;
49860;SDS011;35761;48.826;9.238;2023-02-28T10:33:29;14.35;;;7.75;;
49860;SDS011;35761;48.826;9.238;2023-02-28T10:36:02;13.65;;;7.45;;
49860;SDS011;35761;48.826;9.238;2023-02-28T10:38:33;14.18;;;7.30;;
49860;SDS011;35761;48.826;9.238;2023-02-28T10:41:05;16.73;;;8.27;;
49860;SDS011;35761;48.826;9.238;2023-02-28T10:43:35;14.45;;;7.90;;
49860;SDS011;35761;48.826;9.238;2023-02-28T10:46:09;14.65;;;7.65;;
49860;SDS011;35761;48.826;9.238;2023-02-28T10:48:42;12.18;;;7.30;;
49860;SDS011;35761;48.826;9.238;2023-02-28T10:51:16;14.55;;;7.30;;
49860;SDS011;35761;48.826;9.238;2023-02-28T10:53:47;14.07;;;8.88;;
49860;SDS011;35761;48.826;9.238;2023-02-28T10:56:28;14.38;;;8.13;;
49860;SDS011;35761;48.826;9.238;2023-02-28T10:58:58;13.05;;;6.82;;
49860;SDS011;35761;48.826;9.238;2023-02-28T11:01:35;13.70;;;7.60;;
49860;SDS011;35761;48.826;9.238;2023-02-28T11:04:16;10.18;;;6.35;;
49860;SDS011;35761;48.826;9.238;2023-02-28T11:06:53;11.90;;;7.28;;
49860;SDS011;35761;48.826;9.238;2023-02-28T11:09:26;15.40;;;7.97;;
49860;SDS011;35761;48.826;9.238;2023-02-28T11:11:56;11.82;;;7.25;;
49860;SDS011;35761;48.826;9.238;2023-02-28T11:14:26;13.52;;;7.93;;
49860;SDS011;35761;48.826;9.238;2023-02-28T11:16:56;12.10;;;7.47;;
49860;SDS011;35761;48.826;9.238;2023-02-28T11:19:29;14.90;;;7.80;;
49860;SDS011;35761;48.826;9.238;2023-02-28T11:22:04;14.77;;;8.43;;
49860;SDS011;35761;48.826;9.238;2023-02-28T11:24:33;13.98;;;7.68;;
49860;SDS011;35761;48.826;9.238;2023-02-28T11:27:04;14.45;;;6.95;;
49860;SDS011;35761;48.826;9.238;2023-02-28T11:29:36;18.13;;;8.27;;
49860;SDS011;35761;48.826;9.238;2023-02-28T11:32:16;16.33;;;9.40;;
49860;SDS011;35761;48.826;9.238;2023-02-28T11:34:47;13.90;;;8.15;;
49860;SDS011;35761;48.826;9.238;2023-02-28T11:37:33;16.02;;;7.50;;
49860;SDS011;35761;48.826;9.238;2023-02-28T11:40:02;12.88;;;7.93;;
49860;SDS011;35761;48.826;9.238;2023-02-28T11:42:43;11.93;;;7.45;;
49860;SDS011;35761;48.826;9.238;2023-02-28T11:45:21;11.57;;;6.97;;
49860;SDS011;35761;48.826;9.238;2023-02-28T11:47:56;18.58;;;10.18;;
49860;SDS011;35761;48.826;9.238;2023-02-28T11:50:36;19.15;;;9.90;;
49860;SDS011;35761;48.826;9.238;2023-02-28T11:53:16;12.77;;;7.47;;
49860;SDS011;35761;48.826;9.238;2023-02-28T11:55:53;13.98;;;6.65;;
49860;SDS011;35761;48.826;9.238;2023-02-28T11:58:30;10.48;;;7.18;;
49860;SDS011;35761;48.826;9.238;2023-02-28T12:03:53;10.35;;;6.20;;
49860;SDS011;35761;48.826;9.238;2023-02-28T12:06:28;13.10;;;7.32;;
49860;SDS011;35761;48.826;9.238;2023-02-28T12:09:04;12.48;;;6.68;;
49860;SDS011;35761;48.826;9.238;2023-02-28T12:11:44;9.55;;;6.50;;
49860;SDS011;35761;48.826;9.238;2023-02-28T12:14:22;14.30;;;6.70;;
49860;SDS011;35761;48.826;9.238;2023-02-28T12:17:14;12.35;;;6.93;;
49860;SDS011;35761;48.826;9.238;2023-02-28T12:19:51;11.90;;;6.65;;
49860;SDS011;35761;48.826;9.238;2023-02-28T12:22:30;11.10;;;7.00;;
49860;SDS011;35761;48.826;9.238;2023-02-28T12:28:10;12.70;;;6.22;;
49860;SDS011;35761;48.826;9.238;2023-02-28T12:30:41;11.20;;;6.97;;
49860;SDS011;35761;48.826;9.238;2023-02-28T12:33:15;11.48;;;6.68;;
49860;SDS011;35761;48.826;9.238;2023-02-28T12:35:47;10.75;;;6.63;;
49860;SDS011;35761;48.826;9.238;2023-02-28T12:38:18;11.07;;;6.28;;
49860;SDS011;35761;48.826;9.238;2023-02-28T12:40:50;11.27;;;6.40;;
49860;SDS011;35761;48.826;9.238;2023-02-28T12:43:22;12.07;;;6.30;;
49860;SDS011;35761;48.826;9.238;2023-02-28T12:45:55;11.40;;;6.35;;
49860;SDS011;35761;48.826;9.238;2023-02-28T12:48:27;14.40;;;6.15;;
49860;SDS011;35761;48.826;9.238;2023-02-28T12:50:59;10.48;;;5.93;;
49860;SDS011;35761;48.826;9.238;2023-02-28T12:53:30;12.43;;;6.78;;
49860;SDS011;35761;48.826;9.238;2023-02-28T12:56:12;9.15;;;6.00;;
49860;SDS011;35761;48.826;9.238;2023-02-28T12:58:45;10.82;;;6.40;;
49860;SDS011;35761;48.826;9.238;2023-02-28T13:01:33;12.55;;;7.68;;
49860;SDS011;35761;48.826;9.238;2023-02-28T13:07:25;11.68;;;6.88;;
49860;SDS011;35761;48.826;9.238;2023-02-28T13:10:13;13.25;;;6.15;;
49860;SDS011;35761;48.826;9.238;2023-02-28T13:12:48;9.43;;;5.82;;
49860;SDS011;35761;48.826;9.238;2023-02-28T13:15:18;10.68;;;6.50;;
49860;SDS011;35761;48.826;9.238;2023-02-28T13:17:51;10.38;;;6.28;;
49860;SDS011;35761;48.826;9.238;2023-02-28T13:20:21;13.27;;;6.57;;
49860;SDS011;35761;48.826;9.238;2023-02-28T13:22:52;11.68;;;6.18;;
49860;SDS011;35761;48.826;9.238;2023-02-28T13:31:26;15.70;;;8.90;;
49860;SDS011;35761;48.826;9.238;2023-02-28T13:34:05;9.10;;;5.95;;
49860;SDS011;35761;48.826;9.238;2023-02-28T13:36:40;8.70;;;5.88;;
49860;SDS011;35761;48.826;9.238;2023-02-28T13:42:22;10.32;;;5.88;;
49860;SDS011;35761;48.826;9.238;2023-02-28T13:48:00;10.65;;;6.68;;
49860;SDS011;35761;48.826;9.238;2023-02-28T13:50:31;11.40;;;6.72;;
49860;SDS011;35761;48.826;9.238;2023-02-28T13:55:57;8.13;;;5.05;;
49860;SDS011;35761;48.826;9.238;2023-02-28T13:58:45;8.70;;;5.35;;
49860;SDS011;35761;48.826;9.238;2023-02-28T14:01:28;9.88;;;5.88;;
49860;SDS011;35761;48.826;9.238;2023-02-28T14:04:12;9.95;;;6.07;;
49860;SDS011;35761;48.826;9.238;2023-02-28T14:06:59;11.48;;;7.13;;
49860;SDS011;35761;48.826;9.238;2023-02-28T14:09:29;10.57;;;5.63;;
49860;SDS011;35761;48.826;9.238;2023-02-28T14:15:01;9.93;;;5.53;;
49860;SDS011;35761;48.826;9.238;2023-02-28T14:17:33;11.90;;;6.47;;
49860;SDS011;35761;48.826;9.238;2023-02-28T14:20:02;8.77;;;6.18;;
49860;SDS011;35761;48.826;9.238;2023-02-28T14:22:44;8.57;;;5.70;;
49860;SDS011;35761;48.826;9.238;2023-02-28T14:25:21;8.98;;;5.20;;
49860;SDS011;35761;48.826;9.238;2023-02-28T14:27:57;12.00;;;5.43;;
49860;SDS011;35761;48.826;9.238;2023-02-28T14:30:40;7.97;;;5.55;;
49860;SDS011;35761;48.826;9.238;2023-02-28T14:33:34;7.63;;;5.35;;
49860;SDS011;35761;48.826;9.238;2023-02-28T14:36:23;8.30;;;5.22;;
49860;SDS011;35761;48.826;9.238;2023-02-28T14:38:55;10.75;;;6.28;;
49860;SDS011;35761;48.826;9.238;2023-02-28T14:41:28;9.65;;;5.95;;
49860;SDS011;35761;48.826;9.238;2023-02-28T14:44:02;8.70;;;5.68;;
49860;SDS011;35761;48.826;9.238;2023-02-28T14:46:41;18.30;;;11.27;;
49860;SDS011;35761;48.826;9.238;2023-02-28T14:49:15;8.93;;;6.28;;
49860;SDS011;35761;48.826;9.238;2023-02-28T14:51:47;8.38;;;5.80;;
49860;SDS011;35761;48.826;9.238;2023-02-28T14:54:17;15.02;;;6.25;;
49860;SDS011;35761;48.826;9.238;2023-02-28T14:56:50;9.95;;;6.30;;
49860;SDS011;35761;48.826;9.238;2023-02-28T14:59:23;15.73;;;6.18;;
49860;SDS011;35761;48.826;9.238;2023-02-28T15:04:44;8.93;;;5.63;;
49860;SDS011;35761;48.826;9.238;2023-02-28T15:07:25;7.68;;;5.60;;
49860;SDS011;35761;48.826;9.238;2023-02-28T15:10:09;7.95;;;6.05;;
49860;SDS011;35761;48.826;9.238;2023-02-28T15:12:41;9.18;;;5.18;;
49860;SDS011;35761;48.826;9.238;2023-02-28T15:15:16;9.83;;;6.33;;
49860;SDS011;35761;48.826;9.238;2023-02-28T15:17:57;10.25;;;6.15;;
49860;SDS011;35761;48.826;9.238;2023-02-28T15:20:28;9.10;;;6.18;;
49860;SDS011;35761;48.826;9.238;2023-02-28T15:22:57;12.05;;;5.80;;
49860;SDS011;35761;48.826;9.238;2023-02-28T15:25:27;10.88;;;6.47;;
49860;SDS011;35761;48.826;9.238;2023-02-28T15:27:56;12.30;;;7.63;;
49860;SDS011;35761;48.826;9.238;2023-02-28T15:30:26;9.73;;;6.60;;
49860;SDS011;35761;48.826;9.238;2023-02-28T15:33:07;7.57;;;5.75;;
49860;SDS011;35761;48.826;9.238;2023-02-28T15:35:48;12.80;;;6.60;;
49860;SDS011;35761;48.826;9.238;2023-02-28T15:38:21;12.02;;;6.85;;
49860;SDS011;35761;48.826;9.238;2023-02-28T15:40:51;9.13;;;6.22;;
49860;SDS011;35761;48.826;9.238;2023-02-28T15:43:25;10.93;;;6.93;;
49860;SDS011;35761;48.826;9.238;2023-02-28T15:45:55;9.73;;;6.40;;
49860;SDS011;35761;48.826;9.238;2023-02-28T15:48:26;10.15;;;7.05;;
49860;SDS011;35761;48.826;9.238;2023-02-28T15:51:01;9.55;;;6.20;;